createdAt,value
2023-08-07T00:02:00.952Z,2.53
2023-08-07T00:04:27.575Z,2.37
2023-08-07T00:06:54.252Z,2.55
2023-08-07T00:09:20.876Z,2.33
2023-08-07T00:11:47.530Z,2.68
2023-08-07T00:14:14.159Z,2.52
2023-08-07T00:16:42.736Z,2.89
2023-08-07T00:19:09.350Z,2.58
2023-08-07T00:21:36.951Z,2.97
2023-08-07T00:24:03.800Z,2.74
2023-08-07T00:26:30.632Z,2.96
2023-08-07T00:28:57.278Z,3.22
2023-08-07T00:31:23.955Z,3.16
2023-08-07T00:33:52.964Z,3.46
2023-08-07T00:36:19.600Z,3.36
2023-08-07T00:38:46.237Z,3.22
2023-08-07T00:41:12.940Z,3.05
2023-08-07T00:43:39.593Z,3.41
2023-08-07T00:46:06.564Z,3.25
2023-08-07T00:48:33.375Z,3.08
2023-08-07T00:51:00.324Z,3.11
2023-08-07T00:53:27.401Z,2.88
2023-08-07T00:55:54.274Z,2.93
2023-08-07T00:58:21.047Z,2.98
2023-08-07T01:00:47.840Z,3.38
2023-08-07T01:03:15.225Z,3.00
2023-08-07T01:05:42.037Z,2.95
2023-08-07T01:08:09.654Z,3.32
2023-08-07T01:10:48.856Z,3.22
2023-08-07T01:13:35.145Z,3.31
2023-08-07T01:16:11.342Z,3.36
2023-08-07T01:18:40.001Z,3.50
2023-08-07T01:21:06.665Z,3.44
2023-08-07T01:23:33.301Z,3.55
2023-08-07T01:26:00.040Z,3.64
2023-08-07T01:28:26.610Z,3.57
2023-08-07T01:31:00.565Z,3.61
2023-08-07T01:33:48.886Z,3.79
2023-08-07T01:36:19.068Z,3.69
2023-08-07T01:38:48.278Z,4.16
2023-08-07T01:41:14.955Z,3.98
2023-08-07T01:43:41.724Z,3.72
2023-08-07T01:46:08.364Z,3.72
2023-08-07T01:48:35.065Z,3.86
2023-08-07T01:51:01.785Z,3.79
2023-08-07T01:53:28.418Z,3.52
2023-08-07T01:55:55.051Z,3.73
2023-08-07T01:58:21.696Z,3.80
2023-08-07T02:00:48.270Z,3.60
2023-08-07T02:03:14.979Z,3.73
2023-08-07T02:05:41.658Z,3.53
2023-08-07T02:08:08.268Z,3.49
2023-08-07T02:10:35.303Z,3.44
2023-08-07T02:13:01.993Z,3.59
2023-08-07T02:15:28.797Z,3.82
2023-08-07T02:17:55.467Z,3.71
2023-08-07T02:20:22.234Z,3.77
2023-08-07T02:22:48.841Z,3.47
2023-08-07T02:25:15.555Z,3.65
2023-08-07T02:27:42.173Z,3.53
2023-08-07T02:30:09.101Z,3.33
2023-08-07T02:32:35.913Z,3.30
2023-08-07T02:35:02.640Z,3.34
2023-08-07T02:37:29.213Z,3.11
2023-08-07T02:39:55.935Z,3.26
2023-08-07T02:42:22.575Z,3.69
2023-08-07T02:44:49.211Z,3.76
2023-08-07T02:47:15.829Z,3.65
2023-08-07T02:49:42.486Z,3.69
2023-08-07T02:52:09.151Z,3.46
2023-08-07T02:54:35.764Z,3.55
2023-08-07T02:57:02.353Z,3.43
2023-08-07T02:59:29.018Z,3.35
2023-08-07T03:01:55.639Z,3.33
2023-08-07T03:04:22.612Z,3.41
2023-08-07T03:06:49.359Z,3.48
2023-08-07T03:09:16.160Z,3.35
2023-08-07T03:11:42.813Z,3.01
2023-08-07T03:14:09.520Z,3.27
2023-08-07T03:16:36.125Z,3.28
2023-08-07T03:19:02.842Z,3.11
2023-08-07T03:21:29.450Z,2.92
2023-08-07T03:23:56.109Z,2.69
2023-08-07T03:26:22.708Z,2.71
2023-08-07T03:28:49.880Z,2.55
2023-08-07T03:31:16.947Z,2.61
2023-08-07T03:33:43.614Z,2.60
2023-08-07T03:36:10.423Z,2.45
2023-08-07T03:38:37.314Z,2.52
2023-08-07T03:41:04.353Z,2.39
2023-08-07T03:43:30.946Z,2.59
2023-08-07T03:45:59.547Z,2.53
2023-08-07T03:48:29.040Z,2.46
2023-08-07T03:51:12.262Z,2.55
2023-08-07T03:53:39.121Z,2.46
2023-08-07T03:56:05.803Z,2.39
2023-08-07T03:58:32.719Z,2.43
2023-08-07T04:00:59.444Z,2.56
2023-08-07T04:03:26.298Z,2.67
2023-08-07T04:05:57.075Z,2.83
2023-08-07T04:08:24.450Z,2.49
2023-08-07T04:11:05.423Z,2.65
2023-08-07T04:13:32.802Z,2.70
2023-08-07T04:15:59.938Z,2.64
2023-08-07T04:18:26.793Z,2.75
2023-08-07T04:20:56.714Z,2.78
2023-08-07T04:23:23.882Z,2.99
2023-08-07T04:25:51.665Z,3.05
2023-08-07T04:28:18.670Z,3.20
2023-08-07T04:30:46.458Z,2.93
2023-08-07T04:33:13.859Z,2.97
2023-08-07T04:35:40.954Z,3.10
2023-08-07T04:38:07.834Z,3.15
2023-08-07T04:40:34.604Z,3.14
2023-08-07T04:43:01.932Z,3.10
2023-08-07T04:45:28.590Z,3.35
2023-08-07T04:47:55.270Z,3.28
2023-08-07T04:50:21.877Z,3.19
2023-08-07T04:52:48.546Z,3.51
2023-08-07T04:55:15.221Z,3.42
2023-08-07T04:57:42.091Z,3.41
2023-08-07T05:00:09.564Z,3.32
2023-08-07T05:02:36.326Z,3.38
2023-08-07T05:05:03.092Z,3.31
2023-08-07T05:07:29.683Z,3.35
2023-08-07T05:09:56.336Z,3.59
2023-08-07T05:12:23.864Z,3.35
2023-08-07T05:14:50.638Z,3.68
2023-08-07T05:17:17.323Z,3.49
2023-08-07T05:19:43.906Z,3.55
2023-08-07T05:22:10.569Z,3.19
2023-08-07T05:24:40.344Z,3.03
2023-08-07T05:27:09.561Z,2.92
2023-08-07T05:29:44.508Z,2.92
2023-08-07T05:32:12.778Z,2.88
2023-08-07T05:34:40.019Z,2.97
2023-08-07T05:37:07.396Z,3.13
2023-08-07T05:39:35.550Z,3.19
2023-08-07T05:42:02.779Z,2.92
2023-08-07T05:44:30.419Z,3.21
2023-08-07T05:46:57.068Z,3.24
2023-08-07T05:49:25.970Z,3.38
2023-08-07T05:51:52.995Z,3.17
2023-08-07T05:54:19.582Z,2.96
2023-08-07T05:56:46.173Z,2.87
2023-08-07T05:59:12.925Z,2.96
2023-08-07T06:01:39.649Z,3.05
2023-08-07T06:04:06.324Z,3.35
2023-08-07T06:06:35.795Z,3.14
2023-08-07T06:09:07.381Z,3.28
2023-08-07T06:11:34.016Z,3.30
2023-08-07T06:14:00.811Z,3.45
2023-08-07T06:16:28.422Z,3.47
2023-08-07T06:18:55.276Z,3.65
2023-08-07T06:21:22.016Z,3.47
2023-08-07T06:23:48.649Z,3.80
2023-08-07T06:26:15.519Z,3.68
2023-08-07T06:28:43.314Z,3.67
2023-08-07T06:31:11.928Z,3.88
2023-08-07T06:33:38.745Z,3.70
2023-08-07T06:36:05.904Z,4.03
2023-08-07T06:38:32.536Z,3.88
2023-08-07T06:40:59.207Z,3.58
2023-08-07T06:43:25.859Z,3.89
2023-08-07T06:45:54.677Z,3.94
2023-08-07T06:48:21.561Z,4.11
2023-08-07T06:50:49.350Z,4.16
2023-08-07T06:53:16.316Z,4.01
2023-08-07T06:55:43.833Z,3.96
2023-08-07T06:58:10.969Z,4.17
2023-08-07T07:00:38.155Z,4.21
2023-08-07T07:03:05.331Z,4.11
2023-08-07T07:05:33.210Z,4.26
2023-08-07T07:07:59.887Z,4.06
2023-08-07T07:10:26.460Z,3.90
2023-08-07T07:12:53.367Z,3.75
2023-08-07T07:15:20.127Z,4.04
2023-08-07T07:17:46.891Z,3.72
2023-08-07T07:20:14.149Z,4.00
2023-08-07T07:22:40.926Z,3.89
2023-08-07T07:25:07.975Z,4.03
2023-08-07T07:27:34.699Z,4.04
2023-08-07T07:30:01.403Z,4.10
2023-08-07T07:32:28.246Z,4.13
2023-08-07T07:34:54.881Z,4.00
2023-08-07T07:37:21.575Z,4.24
2023-08-07T07:39:48.218Z,4.11
2023-08-07T07:42:14.874Z,4.21
2023-08-07T07:44:41.962Z,3.84
2023-08-07T07:47:11.616Z,4.09
2023-08-07T07:49:40.426Z,3.97
2023-08-07T07:52:07.781Z,3.97
2023-08-07T07:54:36.447Z,3.95
2023-08-07T07:57:03.165Z,4.19
2023-08-07T07:59:29.850Z,4.45
2023-08-07T08:01:56.842Z,4.49
2023-08-07T08:04:24.251Z,4.23
2023-08-07T08:06:51.052Z,4.23
2023-08-07T08:09:17.733Z,4.33
2023-08-07T08:11:44.627Z,4.12
2023-08-07T08:14:11.410Z,4.02
2023-08-07T08:16:38.065Z,4.03
2023-08-07T08:19:04.994Z,3.94
2023-08-07T08:21:32.494Z,3.83
2023-08-07T08:24:00.466Z,4.20
2023-08-07T08:26:27.098Z,4.03
2023-08-07T08:28:53.715Z,4.21
2023-08-07T08:31:22.558Z,4.02
2023-08-07T08:33:49.534Z,3.82
2023-08-07T08:36:16.279Z,3.75
2023-08-07T08:38:43.027Z,3.82
2023-08-07T08:41:10.679Z,3.96
2023-08-07T08:43:41.583Z,3.67
2023-08-07T08:46:12.470Z,3.74
2023-08-07T08:48:41.592Z,3.99
2023-08-07T08:51:09.812Z,4.09
2023-08-07T08:53:37.128Z,3.58
2023-08-07T08:56:03.937Z,3.44
2023-08-07T08:58:31.059Z,3.53
2023-08-07T09:00:57.815Z,3.59
2023-08-07T09:03:26.316Z,3.32
2023-08-07T09:05:57.992Z,3.27
2023-08-07T09:08:30.725Z,3.54
2023-08-07T09:10:57.648Z,3.45
2023-08-07T09:13:25.670Z,3.70
2023-08-07T09:15:53.407Z,3.80
2023-08-07T09:18:21.240Z,3.70
2023-08-07T09:20:48.238Z,3.50
2023-08-07T09:23:17.737Z,3.67
2023-08-07T09:25:45.493Z,3.51
2023-08-07T09:28:13.065Z,3.32
2023-08-07T09:30:40.162Z,3.63
2023-08-07T09:33:07.362Z,3.59
2023-08-07T09:35:35.475Z,3.71
2023-08-07T09:38:03.049Z,3.66
2023-08-07T09:40:30.676Z,3.65
2023-08-07T09:42:57.325Z,3.41
2023-08-07T09:45:27.801Z,3.64
2023-08-07T09:48:13.220Z,3.87
2023-08-07T09:50:40.109Z,3.58
2023-08-07T09:53:06.774Z,3.56
2023-08-07T09:55:33.507Z,3.35
2023-08-07T09:58:03.388Z,3.45
2023-08-07T10:00:35.280Z,3.54
2023-08-07T10:03:03.142Z,3.41
2023-08-07T10:05:31.895Z,3.58
2023-08-07T10:07:59.217Z,3.53
2023-08-07T10:10:26.536Z,3.52
2023-08-07T10:12:55.737Z,3.50
2023-08-07T10:15:22.949Z,3.40
2023-08-07T10:17:49.683Z,3.49
2023-08-07T10:20:16.829Z,3.40
2023-08-07T10:22:45.521Z,3.29
2023-08-07T10:25:12.239Z,3.22
2023-08-07T10:27:42.726Z,3.14
2023-08-07T10:30:16.034Z,2.84
2023-08-07T10:32:45.273Z,3.10
2023-08-07T10:35:30.460Z,3.41
2023-08-07T10:38:07.260Z,3.23
2023-08-07T10:40:34.088Z,3.32
2023-08-07T10:43:15.171Z,3.17
2023-08-07T10:45:41.909Z,3.19
2023-08-07T10:48:11.997Z,3.36
2023-08-07T10:50:54.594Z,3.48
2023-08-07T10:53:46.872Z,2.93
2023-08-07T10:56:19.343Z,3.22
2023-08-07T10:58:54.610Z,3.09
2023-08-07T11:01:21.417Z,3.20
2023-08-07T11:03:54.202Z,3.36
2023-08-07T11:06:34.153Z,3.28
2023-08-07T11:09:02.200Z,2.95
2023-08-07T11:11:28.857Z,2.97
2023-08-07T11:13:55.601Z,2.83
2023-08-07T11:16:23.923Z,2.74
2023-08-07T11:18:51.331Z,2.86
2023-08-07T11:21:18.113Z,2.83
2023-08-07T11:23:47.470Z,2.72
2023-08-07T11:26:14.378Z,2.76
2023-08-07T11:28:41.028Z,2.72
2023-08-07T11:31:07.841Z,2.96
2023-08-07T11:33:34.679Z,3.02
2023-08-07T11:36:01.444Z,2.90
2023-08-07T11:38:39.103Z,2.82
2023-08-07T11:41:08.205Z,3.09
2023-08-07T11:43:36.285Z,2.82
2023-08-07T11:46:05.991Z,2.85
2023-08-07T11:48:38.480Z,3.14
2023-08-07T11:51:06.722Z,2.83
2023-08-07T11:53:35.546Z,2.96
2023-08-07T11:56:05.321Z,3.36
2023-08-07T11:58:38.110Z,3.06
2023-08-07T12:01:11.993Z,2.82
2023-08-07T12:03:42.402Z,2.86
2023-08-07T12:06:10.321Z,3.36
2023-08-07T12:08:39.354Z,3.10
2023-08-07T12:11:16.019Z,2.89
2023-08-07T12:13:45.902Z,2.82
2023-08-07T12:16:17.871Z,3.00
2023-08-07T12:18:49.859Z,2.78
2023-08-07T12:21:25.338Z,2.68
2023-08-07T12:23:56.312Z,2.79
2023-08-07T12:26:23.117Z,2.71
2023-08-07T12:28:50.282Z,2.69
2023-08-07T12:31:18.713Z,2.58
2023-08-07T12:33:45.550Z,2.80
2023-08-07T12:38:44.077Z,2.47
2023-08-07T12:41:44.722Z,2.72
2023-08-07T12:43:57.470Z,2.51
2023-08-07T12:48:53.679Z,2.45
2023-08-07T12:51:20.291Z,2.04
2023-08-07T12:53:48.474Z,2.34
2023-08-07T12:56:15.300Z,2.44
2023-08-07T12:58:42.817Z,2.32
2023-08-07T13:01:10.472Z,2.30
2023-08-07T13:03:37.148Z,2.19
2023-08-07T13:06:07.069Z,2.30
2023-08-07T13:08:34.704Z,2.16
2023-08-07T13:11:02.341Z,2.40
2023-08-07T13:13:31.944Z,2.40
2023-08-07T13:15:58.663Z,2.06
2023-08-07T13:18:25.699Z,2.21
2023-08-07T13:20:52.366Z,2.37
2023-08-07T13:23:19.034Z,2.28
2023-08-07T13:25:45.663Z,2.29
2023-08-07T13:28:12.421Z,2.30
2023-08-07T13:30:39.050Z,2.21
2023-08-07T13:33:05.712Z,2.26
2023-08-07T13:35:36.016Z,2.26
2023-08-07T13:38:06.339Z,2.15
2023-08-07T13:40:33.275Z,2.30
2023-08-07T13:43:02.939Z,1.96
2023-08-07T13:45:29.589Z,2.06
2023-08-07T13:47:56.308Z,1.74
2023-08-07T13:50:23.018Z,1.81
2023-08-07T13:53:00.081Z,1.71
2023-08-07T13:55:35.206Z,1.73
2023-08-07T13:58:01.830Z,1.91
2023-08-07T14:00:29.399Z,1.69
2023-08-07T14:02:56.389Z,1.63
2023-08-07T14:05:23.679Z,1.84
2023-08-07T14:07:50.470Z,1.68
2023-08-07T14:10:17.078Z,1.66
2023-08-07T14:12:43.715Z,1.84
2023-08-07T14:15:10.754Z,1.71
2023-08-07T14:17:37.419Z,1.69
2023-08-07T14:20:05.941Z,1.80
2023-08-07T14:22:33.156Z,1.63
2023-08-07T14:24:59.743Z,1.83
2023-08-07T14:27:26.357Z,1.69
2023-08-07T14:29:52.949Z,1.65
2023-08-07T14:32:19.566Z,1.61
2023-08-07T14:34:47.917Z,1.77
2023-08-07T14:37:14.524Z,1.86
2023-08-07T14:39:41.220Z,1.74
2023-08-07T14:42:08.267Z,1.86
2023-08-07T14:44:34.901Z,1.76
2023-08-07T14:47:01.653Z,1.80
2023-08-07T14:49:28.529Z,1.83
2023-08-07T14:51:55.942Z,1.80
2023-08-07T14:54:24.712Z,2.03
2023-08-07T14:56:51.382Z,1.89
2023-08-07T14:59:18.261Z,1.99
2023-08-07T15:01:44.941Z,1.97
2023-08-07T15:04:12.096Z,1.99
2023-08-07T15:06:38.782Z,2.03
2023-08-07T15:09:05.500Z,1.94
2023-08-07T15:11:32.166Z,1.87
2023-08-07T15:13:58.785Z,2.04
2023-08-07T15:16:25.424Z,2.11
2023-08-07T15:18:52.105Z,2.19
2023-08-07T15:21:19.449Z,2.13
2023-08-07T15:23:46.130Z,2.03
2023-08-07T15:26:12.785Z,2.10
2023-08-07T15:28:40.552Z,2.15
2023-08-07T15:31:07.316Z,2.41
2023-08-07T15:33:33.915Z,2.30
2023-08-07T15:36:00.967Z,2.16
2023-08-07T15:38:27.701Z,1.93
2023-08-07T15:40:54.367Z,2.06
2023-08-07T15:43:21.023Z,2.16
2023-08-07T15:45:53.552Z,2.19
2023-08-07T15:48:20.985Z,2.23
2023-08-07T15:50:47.938Z,2.25
2023-08-07T15:53:14.852Z,2.12
2023-08-07T15:55:41.489Z,2.18
2023-08-07T15:58:08.250Z,1.95
2023-08-07T16:00:35.831Z,2.05
2023-08-07T16:03:07.337Z,2.13
2023-08-07T16:05:35.781Z,2.15
2023-08-07T16:08:03.812Z,2.04
2023-08-07T16:10:31.412Z,2.01
2023-08-07T16:12:58.064Z,2.14
2023-08-07T16:15:25.563Z,2.02
2023-08-07T16:17:53.260Z,2.19
2023-08-07T16:20:20.955Z,2.14
2023-08-07T16:22:47.670Z,2.35
2023-08-07T16:25:14.294Z,2.34
2023-08-07T16:27:41.445Z,2.45
2023-08-07T16:30:08.784Z,2.51
2023-08-07T16:32:37.669Z,2.47
2023-08-07T16:35:05.240Z,2.62
2023-08-07T16:37:33.298Z,2.82
2023-08-07T16:40:00.572Z,2.67
2023-08-07T16:42:27.258Z,2.72
2023-08-07T16:44:54.065Z,2.58
2023-08-07T16:47:21.147Z,2.79
2023-08-07T16:49:50.089Z,2.55
2023-08-07T16:52:17.330Z,2.56
2023-08-07T16:54:44.978Z,2.42
2023-08-07T16:57:11.623Z,2.58
2023-08-07T16:59:38.283Z,2.57
2023-08-07T17:02:05.281Z,2.49
2023-08-07T17:04:33.443Z,2.47
2023-08-07T17:07:02.659Z,2.46
2023-08-07T17:09:29.906Z,2.46
2023-08-07T17:11:56.684Z,2.55
2023-08-07T17:14:23.422Z,2.45
2023-08-07T17:16:50.117Z,2.64
2023-08-07T17:19:16.764Z,2.62
2023-08-07T17:21:43.511Z,2.75
2023-08-07T17:24:10.196Z,2.63
2023-08-07T17:26:36.941Z,2.69
2023-08-07T17:29:03.649Z,2.71
2023-08-07T17:31:31.011Z,2.78
2023-08-07T17:33:58.336Z,2.99
2023-08-07T17:36:26.165Z,2.86
2023-08-07T17:38:52.886Z,3.03
2023-08-07T17:41:21.707Z,2.75
2023-08-07T17:43:48.718Z,2.62
2023-08-07T17:46:15.415Z,2.78
2023-08-07T17:48:45.426Z,2.77
2023-08-07T17:51:15.344Z,2.58
2023-08-07T17:53:42.145Z,2.57
2023-08-07T17:56:08.765Z,2.39
2023-08-07T17:58:35.469Z,2.54
2023-08-07T18:01:03.463Z,2.54
2023-08-07T18:03:30.259Z,2.33
2023-08-07T18:05:56.879Z,2.37
2023-08-07T18:08:23.746Z,2.18
2023-08-07T18:10:50.427Z,1.93
2023-08-07T18:13:17.071Z,1.94
2023-08-07T18:15:43.708Z,2.01
2023-08-07T18:18:10.358Z,1.83
2023-08-07T18:20:37.280Z,1.96
2023-08-07T18:23:04.330Z,1.90
2023-08-07T18:25:31.104Z,1.95
2023-08-07T18:27:57.773Z,1.93
2023-08-07T18:30:24.482Z,1.92
2023-08-07T18:32:52.533Z,1.87
2023-08-07T18:35:20.028Z,2.01
2023-08-07T18:37:46.670Z,2.05
2023-08-07T18:40:13.628Z,1.98
2023-08-07T18:42:40.414Z,2.04
2023-08-07T18:45:07.617Z,2.18
2023-08-07T18:47:34.356Z,2.14
2023-08-07T18:50:01.078Z,2.14
2023-08-07T18:52:27.805Z,2.01
2023-08-07T18:54:56.262Z,2.22
2023-08-07T18:57:23.000Z,2.11
2023-08-07T18:59:49.617Z,2.17
2023-08-07T19:02:16.491Z,2.10
2023-08-07T19:04:43.266Z,2.27
2023-08-07T19:07:10.542Z,2.17
2023-08-07T19:09:37.260Z,1.99
2023-08-07T19:12:04.123Z,2.21
2023-08-07T19:14:31.233Z,2.13
2023-08-07T19:16:58.094Z,2.51
2023-08-07T19:19:24.916Z,2.37
2023-08-07T19:21:51.570Z,2.35
2023-08-07T19:24:18.184Z,2.32
2023-08-07T19:26:45.071Z,2.47
2023-08-07T19:29:13.510Z,2.35
2023-08-07T19:31:40.239Z,2.39
2023-08-07T19:34:09.828Z,2.56
2023-08-07T19:36:41.436Z,2.81
2023-08-07T19:39:08.521Z,3.02
2023-08-07T19:41:36.734Z,3.05
2023-08-07T19:44:04.193Z,2.76
2023-08-07T19:46:30.913Z,2.77
2023-08-07T19:48:57.886Z,2.71
2023-08-07T19:51:24.581Z,2.89
2023-08-07T19:54:01.353Z,3.08
2023-08-07T19:56:30.093Z,3.25
2023-08-07T19:58:58.032Z,3.85
2023-08-07T20:01:24.797Z,3.74
2023-08-07T20:03:51.582Z,3.28
2023-08-07T20:06:18.190Z,3.42
2023-08-07T20:08:44.900Z,4.10
2023-08-07T20:11:11.609Z,3.71
2023-08-07T20:13:39.055Z,3.47
2023-08-07T20:16:07.615Z,4.30
2023-08-07T20:18:34.347Z,4.01
2023-08-07T20:21:01.036Z,3.70
2023-08-07T20:23:28.190Z,4.07
2023-08-07T20:25:56.328Z,4.83
2023-08-07T20:28:22.976Z,3.90
2023-08-07T20:30:49.673Z,3.84
2023-08-07T20:33:16.353Z,3.53
2023-08-07T20:35:43.009Z,3.59
2023-08-07T20:38:09.642Z,3.91
2023-08-07T20:40:36.277Z,4.12
2023-08-07T20:43:02.943Z,4.05
2023-08-07T20:45:29.727Z,3.90
2023-08-07T20:47:56.417Z,4.26
2023-08-07T20:50:23.107Z,4.14
2023-08-07T20:52:49.707Z,4.56
2023-08-07T20:55:16.404Z,4.86
2023-08-07T20:57:43.034Z,4.36
2023-08-07T21:00:10.219Z,4.35
2023-08-07T21:02:36.962Z,4.24
2023-08-07T21:05:04.073Z,3.98
2023-08-07T21:07:30.732Z,3.99
2023-08-07T21:10:00.963Z,4.14
2023-08-07T21:12:28.303Z,4.09
2023-08-07T21:14:55.010Z,4.06
2023-08-07T21:17:21.706Z,4.69
2023-08-07T21:19:49.164Z,4.48
2023-08-07T21:22:15.910Z,5.15
2023-08-07T21:24:42.535Z,5.56
2023-08-07T21:27:09.190Z,5.51
2023-08-07T21:29:35.838Z,5.53
2023-08-07T21:32:02.626Z,4.61
2023-08-07T21:34:29.281Z,4.84
2023-08-07T21:36:55.949Z,4.60
2023-08-07T21:39:22.658Z,4.68
2023-08-07T21:41:49.321Z,4.51
2023-08-07T21:44:16.863Z,4.87
2023-08-07T21:46:46.301Z,4.93
2023-08-07T21:49:12.969Z,5.30
2023-08-07T21:51:39.628Z,5.01
2023-08-07T21:54:06.259Z,4.93
2023-08-07T21:56:32.933Z,5.40
2023-08-07T21:58:59.533Z,5.99
2023-08-07T22:01:26.997Z,5.65
2023-08-07T22:03:53.858Z,5.29
2023-08-07T22:06:20.543Z,5.58
2023-08-07T22:08:47.157Z,5.83
2023-08-07T22:11:14.720Z,6.18
2023-08-07T22:13:41.378Z,6.28
2023-08-07T22:16:08.032Z,6.27
2023-08-07T22:18:34.707Z,6.30
2023-08-07T22:21:01.338Z,6.30
2023-08-07T22:23:28.008Z,6.94
2023-08-07T22:25:56.140Z,6.67
2023-08-07T22:28:23.166Z,6.77
2023-08-07T22:30:51.155Z,6.22
2023-08-07T22:33:17.894Z,6.49
2023-08-07T22:35:44.550Z,6.30
2023-08-07T22:38:11.195Z,6.39
2023-08-07T22:40:38.767Z,6.34
2023-08-07T22:43:05.539Z,6.65
2023-08-07T22:45:32.239Z,10.33
2023-08-07T22:47:58.968Z,8.30
2023-08-07T22:50:25.604Z,5.93
2023-08-07T22:52:52.209Z,6.01
2023-08-07T22:55:18.796Z,6.16
2023-08-07T22:57:45.404Z,6.63
2023-08-07T23:00:13.098Z,6.22
2023-08-07T23:02:40.093Z,6.03
2023-08-07T23:05:07.761Z,5.75
2023-08-07T23:07:34.431Z,6.05
2023-08-07T23:10:01.936Z,5.97
2023-08-07T23:12:28.665Z,5.90
2023-08-07T23:14:55.305Z,5.87
2023-08-07T23:17:22.001Z,5.83
2023-08-07T23:19:48.696Z,5.76
2023-08-07T23:22:15.455Z,5.80
2023-08-07T23:24:42.055Z,5.63
2023-08-07T23:27:08.726Z,5.55
2023-08-07T23:29:36.009Z,5.45
2023-08-07T23:32:02.730Z,5.72
2023-08-07T23:34:29.385Z,5.50
2023-08-07T23:36:55.992Z,5.28
2023-08-07T23:39:22.709Z,5.67
2023-08-07T23:41:49.307Z,5.49
2023-08-07T23:44:15.870Z,5.85
2023-08-07T23:46:42.612Z,5.47
2023-08-07T23:49:09.398Z,5.28
2023-08-07T23:51:36.038Z,5.38
2023-08-07T23:54:02.636Z,5.33
2023-08-07T23:56:31.010Z,5.27
2023-08-07T23:58:57.618Z,5.35
